Broken Hill Airport

YBHI · New South Wales, Australië

METAR historie YBHI · Broken Hill Airport

Hieronder zie je METAR's van de afgelopen dagen. Kies een jaar om door oudere METAR's te bladeren, vanaf het jaar 2007.

20 juni 2024

Tijd Code Weer Temp. Zicht Plafond Wind METAR/SPECI
19:00
V
11 °C 10 km+ - 160° 160° 5 kt METAR YPAD 200930Z 16005KT 9999 FEW022 11/07 Q1016
18:30
V
11 °C 10 km+ - 170° 170° 5 kt METAR YPAD 200900Z 17005KT 9999 FEW028 11/08 Q1016
18:00
V
12 °C 10 km+ - 190° 190° 6 kt METAR YPAD 200830Z 19006KT 9999 FEW026 12/09 Q1015
17:30
V
12 °C 10 km+ - 200° 200° 6 kt METAR YPAD 200800Z 20006KT 9999 FEW025 12/09 Q1014
17:00
V
12 °C 10 km+ - 210° 210° 7 kt METAR YPAD 200730Z 21007KT 9999 FEW025 12/08 Q1014
16:30
V
14 °C 10 km+ - 210° 210° 3 kt METAR YPAD 200700Z 21003KT 9999 FEW026 SCT060 14/08 Q1013 RF00.0/000.0
16:00
V
14 °C 10 km+ - 040° 040° 5 kt METAR YPAD 200630Z 04005KT 9999 SCT025 14/07 Q1013
15:30
V
14 °C 10 km+ - 030° 030° 6 kt METAR YPAD 200600Z 03006KT 9999 FEW024 14/08 Q1013
15:00
V
14 °C 10 km+ - 010° 010° 7 kt METAR YPAD 200530Z 01007KT 9999 FEW014 14/08 Q1012
14:30
V
13 °C 10 km+ - 030° 030° 7 kt METAR YPAD 200500Z 03007KT 9999 FEW011 SCT020 13/08 Q1012 RF00.0/000.0
14:00
V
13 °C 10 km+ - 010° 010° 11 kt METAR YPAD 200430Z 01011KT 9999 FEW016 SCT020 13/09 Q1012 RF00.0/000.0
13:30
V
13 °C 10 km+ - 020° 020° 12 kt METAR YPAD 200400Z 02012KT 9999 FEW014 SCT018 13/08 Q1012 RF00.0/000.0
13:00
M
13 °C 10 km+ 1.700 ft 040° 040° 11 kt METAR YPAD 200330Z 04011KT 9999 VCSH FEW013 BKN017 BKN030 13/08 Q1012
12:30
M
12 °C 10 km+ 1.600 ft 010° 010° 11 kt METAR YPAD 200300Z 01011KT 9999 VCSH FEW014 BKN016 12/08 Q1012 RF00.0/000.0
12:00
M
13 °C 10 km+ 1.600 ft 010° 010° 10 kt METAR YPAD 200230Z 01010KT 9999 VCSH FEW012 BKN016 13/08 Q1012 RF00.0/000.0
11:30
M
13 °C 10 km+ 1.600 ft 360° 360° 12 kt METAR YPAD 200200Z 36012KT 9999 VCSH BKN016 SCT058 13/08 Q1013 RF00.0/000.0
11:00
M
13 °C 10 km+ 1.800 ft 010° 010° 14 kt METAR YPAD 200130Z 01014KT 9999 BKN018 SCT058 13/08 Q1013 RF00.0/000.0 AMD OBS
10:30
V
12 °C 10 km+ - 010° 010° 13 kt METAR YPAD 200100Z 01013KT 9999 SCT017 SCT058 12/08 Q1013 RF00.0/000.0
10:00
V
12 °C 10 km+ - 010° 010° 11 kt METAR YPAD 200030Z 01011KT 9999 SCT016 12/08 Q1013
09:30
V
11 °C 10 km+ - 010° 010° 10 kt METAR YPAD 200000Z 01010KT 9999 FEW015 11/08 Q1012
09:00
V
11 °C 10 km+ - 010° 010° 11 kt METAR YPAD 192330Z 01011KT 9999 FEW013 11/08 Q1012
08:30
V
10 °C 10 km+ - 030° 030° 10 kt METAR YPAD 192300Z 03010KT 9999 FEW012 10/08 Q1012
08:00
V
9 °C 10 km+ - 020° 020° 11 kt METAR YPAD 192230Z 02011KT 9999 FEW012 09/07 Q1012
07:30
V
9 °C 10 km+ - 040° 040° 10 kt METAR YPAD 192200Z 04010KT 9999 FEW012 09/07 Q1011
07:00
V
9 °C 10 km+ - 030° 030° 10 kt METAR YPAD 192130Z 03010KT 9999 FEW012 SCT180 09/07 Q1011 RF00.0/002.6 AMD SPECI
06:30
V
9 °C 10 km+ 18.000 ft 020° 020° 11 kt METAR YPAD 192100Z 02011KT 9999 FEW012 BKN180 09/07 Q1011 RF00.0/002.6
06:00
V
9 °C 10 km+ 18.000 ft 030° 030° 11 kt METAR YPAD 192030Z 03011KT 9999 FEW015 BKN180 09/07 Q1011 RF00.0/002.6
05:30
M
10 °C 10 km+ 1.700 ft 010° 010° 9 kt METAR YPAD 192000Z 01009KT 9999 FEW010 BKN017 10/08 Q1011 RF00.0/002.6
05:00
V
10 °C 10 km+ 6.000 ft 360° 360° 10 kt METAR YPAD 191930Z 36010KT 9999 FEW012 SCT023 BKN060 10/08 Q1011 RF00.0/002.6
04:30
V
10 °C 10 km+ 7.000 ft 360° 360° 10 kt METAR YPAD 191900Z 36010KT 9999 FEW010 SCT026 BKN070 10/08 Q1010 RF00.0/002.6
04:00
M
10 °C 10 km+ 2.600 ft 360° 360° 11 kt METAR YPAD 191830Z 36011KT 9999 FEW010 BKN026 10/08 Q1011 RF00.0/002.6
03:30
M
10 °C 10 km+ 2.300 ft 010° 010° 10 kt METAR YPAD 191800Z 01010KT 9999 FEW010 BKN023 10/08 Q1011 RF00.0/002.6
03:00
M
11 °C 10 km+ 2.900 ft 010° 010° 11 kt METAR YPAD 191730Z 01011KT 9999 VCSH FEW008 SCT021 BKN029 11/09 Q1011
02:30
M
10 °C 10 km+ 2.200 ft 030° 030° 9 kt METAR YPAD 191700Z 03009KT 9999 VCSH FEW007 BKN022 10/09 Q1011 RF00.0/002.6
02:00
V
12 °C 10 km+ 6.000 ft 010° 010° 12 kt METAR YPAD 191630Z 01012KT 9999 VCSH FEW012 SCT022 BKN060 12/09 Q1011
01:30
V
13 °C 10 km+ 6.000 ft 330° 330° 11 kt METAR YPAD 191600Z 33011KT 9999 VCSH FEW012 SCT020 BKN060 13/10 Q1011
01:00
V
13 °C 10 km+ 6.000 ft 310° 310° 12 kt METAR YPAD 191530Z 31012KT 9999 VCSH FEW012 SCT022 BKN060 13/09 Q1011
00:30
V
13 °C 10 km+ 4.900 ft 350° 350° 8 kt METAR YPAD 191500Z 35008KT 9999 VCSH FEW012 SCT024 BKN049 13/09 Q1011
00:00
M
13 °C 10 km+ 2.100 ft 340° 340° 10 kt METAR YPAD 191430Z 34010KT 9999 VCSH FEW012 BKN021 13/09 Q1011 RF00.0/002.6

19 juni 2024

Tijd Code Weer Temp. Zicht Plafond Wind METAR/SPECI
23:30
M
13 °C 10 km+ 2.100 ft 330° 330° 11 kt METAR YPAD 191400Z 33011KT 9999 FEW012 BKN021 13/10 Q1011 RF00.0/002.6
23:00
V
13 °C 10 km+ - 330° 330° 11 kt METAR YPAD 191330Z 33011KT 9999 VCSH FEW010 13/09 Q1011 RF00.0/002.6
22:30
V
13 °C 10 km+ - 330° 330° 12 kt METAR YPAD 191300Z 33012KT 9999 VCSH FEW015 SCT020 13/10 Q1011 RF00.0/002.6
22:00
V
13 °C 10 km+ - 340° 340° 11 kt METAR YPAD 191230Z 34011KT 9999 VCSH FEW017 SCT020 13/11 Q1011 RF00.0/002.6
21:30
M
13 °C 10 km+ 1.800 ft 360° 360° 7 kt METAR YPAD 191200Z 36007KT 9999 VCSH FEW010 BKN018 13/11 Q1011 RF00.0/002.6
21:00
M
12 °C 10 km+ 2.400 ft 010° 010° 7 kt METAR YPAD 191130Z 01007KT 9999 VCSH FEW012 BKN024 12/11 Q1011 RF00.0/002.6
20:30
M
12 °C 10 km+ 2.900 ft 010° 010° 8 kt METAR YPAD 191100Z 01008KT 9999 VCSH FEW010 BKN029 BKN050 12/11 Q1011
20:00
V
12 °C 10 km+ 6.000 ft 360° 360° 7 kt METAR YPAD 191030Z 36007KT 9999 -RA FEW010 BKN060 12/10 Q1011 RF00.0/002.6
19:42
V
12 °C 10 km+ 7.000 ft 330° 330° 11 kt METAR YPAD 191012Z 33011KT 9999 -RA FEW010 BKN070 12/11 Q1011 RF00/0/002/6
19:30
M
13 °C 6 km 4.000 ft 320° 320° 17 kt METAR YPAD 191000Z 32017KT 6000 -RA FEW010 BKN040 13/11 Q1011 RF00.4/002.6
19:14
M
13 °C 6 km 2.000 ft 330° 330° 10 - 21 kt METAR YPAD 190944Z 33010G21KT 6000 -RA SCT010 BKN020 13/12 Q1011 RF00/2/002/2
19:00
V
14 °C 8 km 4.000 ft 320° 320° 9 kt METAR YPAD 190930Z 32009KT 8000 -RA SCT012 BKN040 14/12 Q1011 RF00.2/002.0
18:53
M
13 °C 6 km 4.000 ft 300° 300° 11 kt METAR YPAD 190923Z 30011KT 6000 -RA SCT016 BKN040 13/12 Q1011 RF00.4/002.0
18:30
V
14 °C 10 km+ 7.500 ft 320° 320° 10 kt METAR YPAD 190900Z 32010KT 9999 -SHRA FEW012 SCT030 BKN075 14/12 Q1011
18:00
V
14 °C 10 km+ 7.500 ft 300° 300° 9 kt METAR YPAD 190830Z 30009KT 9999 -SHRA FEW018 SCT032 BKN075 14/11 Q1010
17:30
V
14 °C 8 km 3.200 ft 320° 320° 8 kt METAR YPAD 190800Z 32008KT 8000 -SHRA FEW018 BKN032 BKN060 14/11 Q1011
17:00
V
15 °C 10 km+ 3.800 ft 310° 310° 8 kt METAR YPAD 190730Z 31008KT 9999 -SHRA FEW025 BKN038 15/11 Q1010 RF00.0/000.2
16:30
V
15 °C 10 km+ 4.000 ft 360° 360° 6 kt METAR YPAD 190700Z 36006KT 9999 VCSH FEW027 BKN040 BKN080 15/11 Q1010
16:00
V
16 °C 10 km+ 8.000 ft 020° 020° 9 kt METAR YPAD 190630Z 02009KT 9999 -SHRA FEW022 SCT040 BKN080 16/10 Q1010
15:30
V
16 °C 10 km+ 19.000 ft 010° 010° 12 kt METAR YPAD 190600Z 01012KT 9999 FEW038TCU SCT043 BKN190 16/09 Q1010
15:00
V
16 °C 10 km+ 4.300 ft 010° 010° 12 kt METAR YPAD 190530Z 01012KT 9999 FEW035 BKN043 16/08 Q1010 RF00.0/000.0
14:30
V
16 °C 10 km+ 5.500 ft 340° 340° 10 kt METAR YPAD 190500Z 34010KT 9999 FEW048 BKN055 16/09 Q1010 RF00.0/000.0
14:00
V
16 °C 10 km+ - 330° 330° 10 kt METAR YPAD 190430Z 33010KT CAVOK 16/09 Q1010 BKN057
13:30
V
15 °C 10 km+ - 350° 350° 9 kt METAR YPAD 190400Z 35009KT 9999 -SHRA NSC 15/10 Q1011 RF00.0/000.0 FEW060 BKN090
13:00
V
16 °C 10 km+ - 360° 360° 13 kt METAR YPAD 190330Z 36013KT 9999 -SHRA NSC 16/07 Q1011 RF00.0/000.0 BKN060 SCT100
12:30
V
16 °C 10 km+ - 350° 350° 13 kt METAR YPAD 190300Z 35013KT 9999 VCSH NSC 16/07 Q1012 RF00.0/000.0 SCT060 SCT100
12:00
V
16 °C 10 km+ - 360° 360° 11 kt METAR YPAD 190230Z 36011KT CAVOK 16/07 Q1012 SCT095 VIRGA
11:30
V
16 °C 10 km+ - 010° 010° 9 kt METAR YPAD 190200Z 01009KT CAVOK 16/07 Q1012
11:00
V
16 °C 10 km+ - 010° 010° 9 kt METAR YPAD 190130Z 01009KT CAVOK 16/06 Q1013 BKN068
10:30
V
15 °C 10 km+ - 020° 020° 12 kt METAR YPAD 190100Z 02012KT CAVOK 15/06 Q1013
10:00
V
15 °C 10 km+ - 020° 020° 10 kt METAR YPAD 190030Z 02010KT CAVOK 15/06 Q1014
09:30
V
14 °C 10 km+ - 020° 020° 11 kt METAR YPAD 190000Z 02011KT CAVOK 14/06 Q1014
09:00
V
13 °C 10 km+ - 040° 040° 8 kt METAR YPAD 182330Z 04008KT CAVOK 13/06 Q1014
08:30
V
11 °C 10 km+ - 040° 040° 8 kt METAR YPAD 182300Z 04008KT CAVOK 11/06 Q1014
08:00
V
11 °C 10 km+ - 050° 050° 7 kt METAR YPAD 182230Z 05007KT CAVOK 11/07 Q1014
07:30
V
10 °C 10 km+ - 040° 040° 6 kt METAR YPAD 182200Z 04006KT CAVOK 10/06 Q1014 SCT080
07:00
V
10 °C 10 km+ - 050° 050° 7 kt METAR YPAD 182130Z 05007KT CAVOK 10/06 Q1014 BKN085
06:30
V
10 °C 10 km+ - 040° 040° 7 kt METAR YPAD 182100Z 04007KT CAVOK 10/06 Q1013
06:00
V
9 °C 10 km+ - 050° 050° 7 kt METAR YPAD 182030Z 05007KT CAVOK 09/06 Q1013
05:30
V
10 °C 10 km+ - 030° 030° 7 kt METAR YPAD 182000Z 03007KT CAVOK 10/06 Q1013
05:00
V
10 °C 10 km+ - 040° 040° 8 kt METAR YPAD 181930Z 04008KT CAVOK 10/07 Q1013 BKN240
04:30
V
11 °C 10 km+ 6.000 ft 030° 030° 7 kt METAR YPAD 181900Z 03007KT 9999 SCT043 BKN060 11/07 Q1013 RF00.0/000.0
04:00
V
10 °C 10 km+ 4.300 ft 050° 050° 6 kt METAR YPAD 181830Z 05006KT 9999 BKN043 SCT060 10/08 Q1014 RF00.0/000.0
03:30
V
10 °C 10 km+ - 050° 050° 7 kt METAR YPAD 181800Z 05007KT CAVOK 10/07 Q1014 SCT090
03:00
V
12 °C 10 km+ - 030° 030° 8 kt METAR YPAD 181730Z 03008KT CAVOK 12/08 Q1014
02:30
V
11 °C 10 km+ - 050° 050° 6 kt METAR YPAD 181700Z 05006KT CAVOK 11/08 Q1014
02:00
V
11 °C 10 km+ - 050° 050° 8 kt METAR YPAD 181630Z 05008KT CAVOK 11/08 Q1014
01:30
V
12 °C 10 km+ - 040° 040° 8 kt METAR YPAD 181600Z 04008KT CAVOK 12/08 Q1014
01:00
V
11 °C 10 km+ - 050° 050° 7 kt METAR YPAD 181530Z 05007KT CAVOK 11/08 Q1014
00:30
V
12 °C 10 km+ - 030° 030° 8 kt METAR YPAD 181500Z 03008KT CAVOK 12/08 Q1015
00:00
V
12 °C 10 km+ - 030° 030° 8 kt METAR YPAD 181430Z 03008KT CAVOK 12/08 Q1015

18 juni 2024

Tijd Code Weer Temp. Zicht Plafond Wind METAR/SPECI
23:30
V
12 °C 10 km+ - 040° 040° 7 kt METAR YPAD 181400Z 04007KT CAVOK 12/08 Q1015
23:00
V
12 °C 10 km+ - 030° 030° 7 kt METAR YPAD 181330Z 03007KT CAVOK 12/08 Q1015
22:30
V
13 °C 10 km+ - 040° 040° 8 kt METAR YPAD 181300Z 04008KT CAVOK 13/08 Q1015
22:00
V
13 °C 10 km+ - 030° 030° 10 kt METAR YPAD 181230Z 03010KT CAVOK 13/08 Q1016 BKN080
21:30
V
13 °C 10 km+ 7.000 ft 040° 040° 9 kt METAR YPAD 181200Z 04009KT 9999 -RA SCT048 BKN070 13/08 Q1016 RF00.0/000.0
21:00
V
13 °C 10 km+ - 040° 040° 7 kt METAR YPAD 181130Z 04007KT CAVOK 13/08 Q1016 BKN070
20:30
V
12 °C 10 km+ - 040° 040° 5 kt METAR YPAD 181100Z 04005KT CAVOK 12/09 Q1016
20:00
V
12 °C 10 km+ 4.800 ft 070° 070° 1 kt METAR YPAD 181030Z 07001KT 9999 BKN048 12/09 Q1016
19:30
V
12 °C 10 km+ 4.600 ft 360° 360° 0 kt METAR YPAD 181000Z 00000KT 9999 BKN046 12/08 Q1015
19:00
V
13 °C 10 km+ - 070° 070° 4 kt METAR YPAD 180930Z 07004KT CAVOK 13/08 Q1015
18:30
V
14 °C 10 km+ - 050° 050° 3 kt METAR YPAD 180900Z 05003KT CAVOK 14/08 Q1015 BKN080
18:00
V
14 °C 10 km+ - 050° 050° 5 kt METAR YPAD 180830Z 05005KT CAVOK 14/09 Q1015 SCT064
17:30
V
15 °C 10 km+ 4.800 ft 030° 030° 5 kt METAR YPAD 180800Z 03005KT 9999 BKN048 BKN064 15/08 Q1015 RF00.0/000.0
17:00
V
15 °C 10 km+ 5.200 ft 360° 360° 6 kt METAR YPAD 180730Z 36006KT 9999 FEW037 BKN052 BKN070 15/08 Q1015 RF00.0/000.0
16:30
V
15 °C 10 km+ 7.300 ft 010° 010° 7 kt METAR YPAD 180700Z 01007KT 9999 FEW037 SCT050 BKN073 15/08 Q1015 RF00.0/000.0
16:00
V
15 °C 10 km+ 5.100 ft 010° 010° 8 kt METAR YPAD 180630Z 01008KT 9999 FEW037 BKN051 15/08 Q1015 RF00.0/000.0
15:30
V
16 °C 10 km+ 6.000 ft 010° 010° 8 kt METAR YPAD 180600Z 01008KT 9999 FEW037 SCT044 BKN060 16/08 Q1015 RF00.0/000.0
Wijziging doorgeven